sensor_id;sensor_type;location;lat;lon;timestamp;P1;durP1;ratioP1;P2;durP2;ratioP2
29730;SDS011;16639;51.488;0.152;2023-10-31T00:01:33;8.40;;;4.63;;
29730;SDS011;16639;51.488;0.152;2023-10-31T00:04:01;7.82;;;4.75;;
29730;SDS011;16639;51.488;0.152;2023-10-31T00:06:32;10.82;;;5.10;;
29730;SDS011;16639;51.488;0.152;2023-10-31T00:09:00;11.82;;;4.68;;
29730;SDS011;16639;51.488;0.152;2023-10-31T00:11:27;9.88;;;4.70;;
29730;SDS011;16639;51.488;0.152;2023-10-31T00:13:54;11.23;;;5.03;;
29730;SDS011;16639;51.488;0.152;2023-10-31T00:16:22;12.40;;;4.40;;
29730;SDS011;16639;51.488;0.152;2023-10-31T00:18:50;6.30;;;4.43;;
29730;SDS011;16639;51.488;0.152;2023-10-31T00:21:18;6.35;;;4.43;;
29730;SDS011;16639;51.488;0.152;2023-10-31T00:23:49;8.60;;;4.30;;
29730;SDS011;16639;51.488;0.152;2023-10-31T00:26:16;7.43;;;4.60;;
29730;SDS011;16639;51.488;0.152;2023-10-31T00:28:44;8.68;;;4.88;;
29730;SDS011;16639;51.488;0.152;2023-10-31T00:31:12;11.88;;;5.75;;
29730;SDS011;16639;51.488;0.152;2023-10-31T00:33:51;11.55;;;5.70;;
29730;SDS011;16639;51.488;0.152;2023-10-31T00:36:22;13.50;;;5.22;;
29730;SDS011;16639;51.488;0.152;2023-10-31T00:38:50;7.22;;;5.00;;
29730;SDS011;16639;51.488;0.152;2023-10-31T00:41:20;9.57;;;4.93;;
29730;SDS011;16639;51.488;0.152;2023-10-31T00:43:47;6.57;;;4.78;;
29730;SDS011;16639;51.488;0.152;2023-10-31T00:46:15;11.02;;;5.32;;
29730;SDS011;16639;51.488;0.152;2023-10-31T00:48:42;7.18;;;5.43;;
29730;SDS011;16639;51.488;0.152;2023-10-31T00:51:10;7.30;;;4.80;;
29730;SDS011;16639;51.488;0.152;2023-10-31T00:53:38;8.20;;;5.57;;
29730;SDS011;16639;51.488;0.152;2023-10-31T00:56:05;9.48;;;5.22;;
29730;SDS011;16639;51.488;0.152;2023-10-31T00:58:34;8.43;;;5.32;;
29730;SDS011;16639;51.488;0.152;2023-10-31T01:01:02;17.38;;;5.80;;
29730;SDS011;16639;51.488;0.152;2023-10-31T01:03:30;8.68;;;5.07;;
29730;SDS011;16639;51.488;0.152;2023-10-31T01:05:57;10.65;;;5.75;;
29730;SDS011;16639;51.488;0.152;2023-10-31T01:08:25;8.90;;;4.72;;
29730;SDS011;16639;51.488;0.152;2023-10-31T01:10:53;7.28;;;5.28;;
29730;SDS011;16639;51.488;0.152;2023-10-31T01:13:21;14.45;;;7.13;;
29730;SDS011;16639;51.488;0.152;2023-10-31T01:15:48;8.13;;;5.53;;
29730;SDS011;16639;51.488;0.152;2023-10-31T01:18:16;10.57;;;5.45;;
29730;SDS011;16639;51.488;0.152;2023-10-31T01:20:43;7.93;;;5.13;;
29730;SDS011;16639;51.488;0.152;2023-10-31T01:23:11;6.53;;;4.60;;
29730;SDS011;16639;51.488;0.152;2023-10-31T01:25:38;8.73;;;5.07;;
29730;SDS011;16639;51.488;0.152;2023-10-31T01:28:06;9.90;;;5.35;;
29730;SDS011;16639;51.488;0.152;2023-10-31T01:30:34;10.75;;;5.47;;
29730;SDS011;16639;51.488;0.152;2023-10-31T01:33:01;12.38;;;4.93;;
29730;SDS011;16639;51.488;0.152;2023-10-31T01:35:29;11.45;;;4.85;;
29730;SDS011;16639;51.488;0.152;2023-10-31T01:37:56;8.18;;;4.75;;
29730;SDS011;16639;51.488;0.152;2023-10-31T01:40:24;9.38;;;4.43;;
29730;SDS011;16639;51.488;0.152;2023-10-31T01:42:51;10.43;;;5.07;;
29730;SDS011;16639;51.488;0.152;2023-10-31T01:45:18;12.73;;;4.25;;
29730;SDS011;16639;51.488;0.152;2023-10-31T01:47:46;12.38;;;4.90;;
29730;SDS011;16639;51.488;0.152;2023-10-31T01:50:16;7.05;;;4.60;;
29730;SDS011;16639;51.488;0.152;2023-10-31T01:52:48;5.93;;;4.05;;
29730;SDS011;16639;51.488;0.152;2023-10-31T01:55:15;10.43;;;5.03;;
29730;SDS011;16639;51.488;0.152;2023-10-31T01:57:46;14.57;;;4.90;;
29730;SDS011;16639;51.488;0.152;2023-10-31T02:00:15;9.73;;;4.32;;
29730;SDS011;16639;51.488;0.152;2023-10-31T02:02:43;16.02;;;4.78;;
29730;SDS011;16639;51.488;0.152;2023-10-31T02:05:11;10.55;;;5.05;;
29730;SDS011;16639;51.488;0.152;2023-10-31T02:07:38;7.78;;;4.93;;
29730;SDS011;16639;51.488;0.152;2023-10-31T02:10:09;13.32;;;4.65;;
29730;SDS011;16639;51.488;0.152;2023-10-31T02:12:36;9.63;;;5.05;;
29730;SDS011;16639;51.488;0.152;2023-10-31T02:15:04;8.82;;;4.47;;
29730;SDS011;16639;51.488;0.152;2023-10-31T02:17:33;8.02;;;4.43;;
29730;SDS011;16639;51.488;0.152;2023-10-31T02:20:00;7.40;;;4.40;;
29730;SDS011;16639;51.488;0.152;2023-10-31T02:22:28;16.02;;;5.10;;
29730;SDS011;16639;51.488;0.152;2023-10-31T02:24:55;10.77;;;4.90;;
29730;SDS011;16639;51.488;0.152;2023-10-31T02:27:23;7.90;;;4.30;;
29730;SDS011;16639;51.488;0.152;2023-10-31T02:29:54;10.15;;;4.97;;
29730;SDS011;16639;51.488;0.152;2023-10-31T02:32:22;9.05;;;5.03;;
29730;SDS011;16639;51.488;0.152;2023-10-31T02:34:49;11.73;;;5.28;;
29730;SDS011;16639;51.488;0.152;2023-10-31T02:37:17;6.60;;;3.85;;
29730;SDS011;16639;51.488;0.152;2023-10-31T02:39:44;6.80;;;5.00;;
29730;SDS011;16639;51.488;0.152;2023-10-31T02:42:12;12.15;;;5.25;;
29730;SDS011;16639;51.488;0.152;2023-10-31T02:44:39;7.38;;;4.50;;
29730;SDS011;16639;51.488;0.152;2023-10-31T02:47:08;11.88;;;5.63;;
29730;SDS011;16639;51.488;0.152;2023-10-31T02:49:35;12.05;;;5.70;;
29730;SDS011;16639;51.488;0.152;2023-10-31T02:52:03;8.82;;;5.05;;
29730;SDS011;16639;51.488;0.152;2023-10-31T02:54:30;9.80;;;5.40;;
29730;SDS011;16639;51.488;0.152;2023-10-31T02:56:58;10.38;;;5.75;;
29730;SDS011;16639;51.488;0.152;2023-10-31T02:59:26;7.97;;;5.45;;
29730;SDS011;16639;51.488;0.152;2023-10-31T03:01:55;10.38;;;5.68;;
29730;SDS011;16639;51.488;0.152;2023-10-31T03:04:23;9.15;;;4.72;;
29730;SDS011;16639;51.488;0.152;2023-10-31T03:06:51;9.32;;;4.70;;
29730;SDS011;16639;51.488;0.152;2023-10-31T03:09:21;7.43;;;4.90;;
29730;SDS011;16639;51.488;0.152;2023-10-31T03:11:49;13.75;;;4.90;;
29730;SDS011;16639;51.488;0.152;2023-10-31T03:14:16;10.57;;;4.57;;
29730;SDS011;16639;51.488;0.152;2023-10-31T03:16:44;9.90;;;4.75;;
29730;SDS011;16639;51.488;0.152;2023-10-31T03:19:11;13.25;;;6.95;;
29730;SDS011;16639;51.488;0.152;2023-10-31T03:21:45;12.95;;;5.22;;
29730;SDS011;16639;51.488;0.152;2023-10-31T03:24:12;8.57;;;4.72;;
29730;SDS011;16639;51.488;0.152;2023-10-31T03:26:47;7.47;;;5.25;;
29730;SDS011;16639;51.488;0.152;2023-10-31T03:29:15;7.65;;;5.72;;
29730;SDS011;16639;51.488;0.152;2023-10-31T03:31:45;13.90;;;5.25;;
29730;SDS011;16639;51.488;0.152;2023-10-31T03:34:13;10.40;;;5.22;;
29730;SDS011;16639;51.488;0.152;2023-10-31T03:36:40;8.88;;;5.45;;
29730;SDS011;16639;51.488;0.152;2023-10-31T03:39:08;11.38;;;5.78;;
29730;SDS011;16639;51.488;0.152;2023-10-31T03:41:35;11.75;;;5.75;;
29730;SDS011;16639;51.488;0.152;2023-10-31T03:44:06;9.43;;;5.93;;
29730;SDS011;16639;51.488;0.152;2023-10-31T03:46:34;13.73;;;6.30;;
29730;SDS011;16639;51.488;0.152;2023-10-31T03:49:01;11.98;;;5.00;;
29730;SDS011;16639;51.488;0.152;2023-10-31T03:51:29;10.75;;;5.70;;
29730;SDS011;16639;51.488;0.152;2023-10-31T03:53:57;9.93;;;5.50;;
29730;SDS011;16639;51.488;0.152;2023-10-31T03:56:24;12.18;;;6.57;;
29730;SDS011;16639;51.488;0.152;2023-10-31T03:58:51;10.85;;;6.63;;
29730;SDS011;16639;51.488;0.152;2023-10-31T04:01:19;10.57;;;6.10;;
29730;SDS011;16639;51.488;0.152;2023-10-31T04:03:46;14.35;;;6.45;;
29730;SDS011;16639;51.488;0.152;2023-10-31T04:06:14;12.15;;;6.18;;
29730;SDS011;16639;51.488;0.152;2023-10-31T04:08:44;8.30;;;6.78;;
29730;SDS011;16639;51.488;0.152;2023-10-31T04:11:12;12.98;;;7.35;;
29730;SDS011;16639;51.488;0.152;2023-10-31T04:13:48;9.98;;;6.20;;
29730;SDS011;16639;51.488;0.152;2023-10-31T04:16:16;11.38;;;6.40;;
29730;SDS011;16639;51.488;0.152;2023-10-31T04:18:43;13.05;;;6.70;;
29730;SDS011;16639;51.488;0.152;2023-10-31T04:21:11;12.57;;;6.20;;
29730;SDS011;16639;51.488;0.152;2023-10-31T04:23:38;10.85;;;6.93;;
29730;SDS011;16639;51.488;0.152;2023-10-31T04:26:06;8.63;;;5.70;;
29730;SDS011;16639;51.488;0.152;2023-10-31T04:28:34;10.00;;;6.63;;
29730;SDS011;16639;51.488;0.152;2023-10-31T04:31:02;14.05;;;6.32;;
29730;SDS011;16639;51.488;0.152;2023-10-31T04:33:30;9.60;;;7.25;;
29730;SDS011;16639;51.488;0.152;2023-10-31T04:35:58;11.18;;;6.88;;
29730;SDS011;16639;51.488;0.152;2023-10-31T04:38:28;10.13;;;6.95;;
29730;SDS011;16639;51.488;0.152;2023-10-31T04:41:02;11.05;;;7.53;;
29730;SDS011;16639;51.488;0.152;2023-10-31T04:43:36;16.38;;;7.65;;
29730;SDS011;16639;51.488;0.152;2023-10-31T04:46:04;10.93;;;7.22;;
29730;SDS011;16639;51.488;0.152;2023-10-31T04:48:31;9.95;;;6.40;;
29730;SDS011;16639;51.488;0.152;2023-10-31T04:50:59;12.32;;;6.55;;
29730;SDS011;16639;51.488;0.152;2023-10-31T04:53:27;10.75;;;6.75;;
29730;SDS011;16639;51.488;0.152;2023-10-31T04:55:58;14.18;;;7.28;;
29730;SDS011;16639;51.488;0.152;2023-10-31T05:02:44;15.07;;;8.07;;
29730;SDS011;16639;51.488;0.152;2023-10-31T05:05:12;10.85;;;6.68;;
29730;SDS011;16639;51.488;0.152;2023-10-31T05:07:40;16.92;;;7.60;;
29730;SDS011;16639;51.488;0.152;2023-10-31T05:10:07;9.65;;;6.68;;
29730;SDS011;16639;51.488;0.152;2023-10-31T05:12:38;12.27;;;7.05;;
29730;SDS011;16639;51.488;0.152;2023-10-31T05:15:08;9.77;;;6.97;;
29730;SDS011;16639;51.488;0.152;2023-10-31T05:17:36;12.05;;;7.57;;
29730;SDS011;16639;51.488;0.152;2023-10-31T05:20:06;9.02;;;6.53;;
29730;SDS011;16639;51.488;0.152;2023-10-31T05:22:39;17.08;;;7.40;;
29730;SDS011;16639;51.488;0.152;2023-10-31T05:25:07;12.93;;;7.07;;
29730;SDS011;16639;51.488;0.152;2023-10-31T05:27:38;13.90;;;6.90;;
29730;SDS011;16639;51.488;0.152;2023-10-31T05:30:06;10.98;;;6.30;;
29730;SDS011;16639;51.488;0.152;2023-10-31T05:32:34;9.90;;;6.43;;
29730;SDS011;16639;51.488;0.152;2023-10-31T05:35:02;13.18;;;7.32;;
29730;SDS011;16639;51.488;0.152;2023-10-31T05:37:30;8.70;;;5.78;;
29730;SDS011;16639;51.488;0.152;2023-10-31T05:39:57;12.00;;;6.13;;
29730;SDS011;16639;51.488;0.152;2023-10-31T05:42:25;11.52;;;6.32;;
29730;SDS011;16639;51.488;0.152;2023-10-31T05:44:54;9.02;;;5.90;;
29730;SDS011;16639;51.488;0.152;2023-10-31T05:47:23;5.82;;;4.97;;
29730;SDS011;16639;51.488;0.152;2023-10-31T05:49:51;9.90;;;6.10;;
29730;SDS011;16639;51.488;0.152;2023-10-31T05:52:18;8.52;;;6.28;;
29730;SDS011;16639;51.488;0.152;2023-10-31T05:54:46;11.63;;;4.93;;
29730;SDS011;16639;51.488;0.152;2023-10-31T05:57:33;10.15;;;5.93;;
29730;SDS011;16639;51.488;0.152;2023-10-31T06:00:01;8.82;;;6.00;;
29730;SDS011;16639;51.488;0.152;2023-10-31T06:02:28;12.13;;;6.10;;
29730;SDS011;16639;51.488;0.152;2023-10-31T06:04:56;6.85;;;4.97;;
29730;SDS011;16639;51.488;0.152;2023-10-31T06:07:24;7.75;;;5.65;;
29730;SDS011;16639;51.488;0.152;2023-10-31T06:09:51;8.68;;;5.15;;
29730;SDS011;16639;51.488;0.152;2023-10-31T06:12:19;6.45;;;4.35;;
29730;SDS011;16639;51.488;0.152;2023-10-31T06:14:46;9.73;;;4.75;;
29730;SDS011;16639;51.488;0.152;2023-10-31T06:17:14;6.95;;;4.25;;
29730;SDS011;16639;51.488;0.152;2023-10-31T06:19:47;7.75;;;4.65;;
29730;SDS011;16639;51.488;0.152;2023-10-31T06:22:15;9.70;;;5.13;;
29730;SDS011;16639;51.488;0.152;2023-10-31T06:24:43;9.35;;;5.20;;
29730;SDS011;16639;51.488;0.152;2023-10-31T06:27:10;7.47;;;4.90;;
29730;SDS011;16639;51.488;0.152;2023-10-31T06:29:37;9.05;;;5.18;;
29730;SDS011;16639;51.488;0.152;2023-10-31T06:32:26;11.98;;;5.22;;
29730;SDS011;16639;51.488;0.152;2023-10-31T06:34:53;9.13;;;5.30;;
29730;SDS011;16639;51.488;0.152;2023-10-31T06:37:21;10.27;;;5.30;;
29730;SDS011;16639;51.488;0.152;2023-10-31T06:39:49;10.40;;;5.47;;
29730;SDS011;16639;51.488;0.152;2023-10-31T06:42:16;10.25;;;5.40;;
29730;SDS011;16639;51.488;0.152;2023-10-31T06:44:44;10.82;;;5.35;;
29730;SDS011;16639;51.488;0.152;2023-10-31T06:47:11;14.35;;;6.13;;
29730;SDS011;16639;51.488;0.152;2023-10-31T06:49:39;10.80;;;5.47;;
29730;SDS011;16639;51.488;0.152;2023-10-31T06:52:06;11.00;;;5.68;;
29730;SDS011;16639;51.488;0.152;2023-10-31T06:54:34;7.85;;;5.40;;
29730;SDS011;16639;51.488;0.152;2023-10-31T06:57:04;9.10;;;5.63;;
29730;SDS011;16639;51.488;0.152;2023-10-31T06:59:32;14.63;;;5.82;;
29730;SDS011;16639;51.488;0.152;2023-10-31T07:01:59;11.88;;;6.93;;
29730;SDS011;16639;51.488;0.152;2023-10-31T07:04:27;8.50;;;5.35;;
29730;SDS011;16639;51.488;0.152;2023-10-31T07:06:57;13.73;;;5.50;;
29730;SDS011;16639;51.488;0.152;2023-10-31T07:09:25;7.75;;;5.25;;
29730;SDS011;16639;51.488;0.152;2023-10-31T07:11:54;10.23;;;6.40;;
29730;SDS011;16639;51.488;0.152;2023-10-31T07:14:21;8.80;;;5.75;;
29730;SDS011;16639;51.488;0.152;2023-10-31T07:16:49;10.65;;;6.57;;
29730;SDS011;16639;51.488;0.152;2023-10-31T07:19:16;13.63;;;6.55;;
29730;SDS011;16639;51.488;0.152;2023-10-31T07:21:44;11.48;;;7.45;;
29730;SDS011;16639;51.488;0.152;2023-10-31T07:24:12;9.45;;;5.85;;
29730;SDS011;16639;51.488;0.152;2023-10-31T07:26:39;10.75;;;6.00;;
29730;SDS011;16639;51.488;0.152;2023-10-31T07:29:10;10.50;;;6.57;;
29730;SDS011;16639;51.488;0.152;2023-10-31T07:31:45;13.35;;;6.63;;
29730;SDS011;16639;51.488;0.152;2023-10-31T07:34:13;15.05;;;6.93;;
29730;SDS011;16639;51.488;0.152;2023-10-31T07:36:41;8.05;;;5.45;;
29730;SDS011;16639;51.488;0.152;2023-10-31T07:39:08;11.65;;;5.07;;
29730;SDS011;16639;51.488;0.152;2023-10-31T07:41:36;9.35;;;5.88;;
29730;SDS011;16639;51.488;0.152;2023-10-31T07:44:03;11.02;;;6.82;;
29730;SDS011;16639;51.488;0.152;2023-10-31T07:46:31;8.10;;;5.00;;
29730;SDS011;16639;51.488;0.152;2023-10-31T07:48:59;10.88;;;5.25;;
29730;SDS011;16639;51.488;0.152;2023-10-31T07:51:26;8.30;;;5.63;;
29730;SDS011;16639;51.488;0.152;2023-10-31T07:53:53;11.77;;;6.60;;
29730;SDS011;16639;51.488;0.152;2023-10-31T07:56:21;8.82;;;5.43;;
29730;SDS011;16639;51.488;0.152;2023-10-31T07:58:50;12.90;;;5.88;;
29730;SDS011;16639;51.488;0.152;2023-10-31T08:01:18;7.72;;;4.65;;
29730;SDS011;16639;51.488;0.152;2023-10-31T08:03:46;10.15;;;6.50;;
29730;SDS011;16639;51.488;0.152;2023-10-31T08:06:14;10.48;;;5.97;;
29730;SDS011;16639;51.488;0.152;2023-10-31T08:08:42;8.18;;;4.82;;
29730;SDS011;16639;51.488;0.152;2023-10-31T08:11:10;10.93;;;5.70;;
29730;SDS011;16639;51.488;0.152;2023-10-31T08:13:38;10.68;;;5.45;;
29730;SDS011;16639;51.488;0.152;2023-10-31T08:16:06;9.60;;;5.55;;
29730;SDS011;16639;51.488;0.152;2023-10-31T08:18:34;11.00;;;6.07;;
29730;SDS011;16639;51.488;0.152;2023-10-31T08:21:05;11.80;;;5.88;;
29730;SDS011;16639;51.488;0.152;2023-10-31T08:23:35;13.88;;;7.53;;
29730;SDS011;16639;51.488;0.152;2023-10-31T08:26:03;10.68;;;7.00;;
29730;SDS011;16639;51.488;0.152;2023-10-31T08:28:31;12.80;;;7.35;;
29730;SDS011;16639;51.488;0.152;2023-10-31T08:30:58;13.43;;;7.53;;
29730;SDS011;16639;51.488;0.152;2023-10-31T08:33:26;14.35;;;7.47;;
29730;SDS011;16639;51.488;0.152;2023-10-31T08:35:53;11.40;;;7.40;;
29730;SDS011;16639;51.488;0.152;2023-10-31T08:38:21;16.85;;;7.82;;
29730;SDS011;16639;51.488;0.152;2023-10-31T08:40:57;12.82;;;6.68;;
29730;SDS011;16639;51.488;0.152;2023-10-31T08:43:26;15.95;;;8.02;;
29730;SDS011;16639;51.488;0.152;2023-10-31T08:45:54;12.75;;;7.85;;
29730;SDS011;16639;51.488;0.152;2023-10-31T08:48:21;16.58;;;8.20;;
29730;SDS011;16639;51.488;0.152;2023-10-31T08:50:51;13.43;;;8.80;;
29730;SDS011;16639;51.488;0.152;2023-10-31T08:53:18;17.55;;;9.55;;
29730;SDS011;16639;51.488;0.152;2023-10-31T08:55:46;14.18;;;8.43;;
29730;SDS011;16639;51.488;0.152;2023-10-31T08:58:14;14.65;;;9.02;;
29730;SDS011;16639;51.488;0.152;2023-10-31T09:00:41;13.38;;;8.68;;
29730;SDS011;16639;51.488;0.152;2023-10-31T09:03:09;15.68;;;7.78;;
29730;SDS011;16639;51.488;0.152;2023-10-31T09:05:36;14.27;;;7.40;;
29730;SDS011;16639;51.488;0.152;2023-10-31T09:08:04;16.70;;;8.75;;
29730;SDS011;16639;51.488;0.152;2023-10-31T09:10:33;11.32;;;8.38;;
29730;SDS011;16639;51.488;0.152;2023-10-31T09:13:02;14.88;;;8.52;;
29730;SDS011;16639;51.488;0.152;2023-10-31T09:15:30;25.08;;;7.80;;
29730;SDS011;16639;51.488;0.152;2023-10-31T09:17:57;17.67;;;9.02;;
29730;SDS011;16639;51.488;0.152;2023-10-31T09:20:25;16.92;;;7.88;;
29730;SDS011;16639;51.488;0.152;2023-10-31T09:22:52;14.32;;;7.32;;
29730;SDS011;16639;51.488;0.152;2023-10-31T09:25:20;19.17;;;7.78;;
29730;SDS011;16639;51.488;0.152;2023-10-31T09:27:47;11.40;;;6.88;;
29730;SDS011;16639;51.488;0.152;2023-10-31T09:30:14;15.57;;;7.15;;
29730;SDS011;16639;51.488;0.152;2023-10-31T09:32:42;11.25;;;6.38;;
29730;SDS011;16639;51.488;0.152;2023-10-31T09:35:09;13.50;;;6.35;;
29730;SDS011;16639;51.488;0.152;2023-10-31T09:37:38;10.05;;;5.80;;
29730;SDS011;16639;51.488;0.152;2023-10-31T09:40:06;12.55;;;5.80;;
29730;SDS011;16639;51.488;0.152;2023-10-31T09:42:34;13.27;;;5.80;;
29730;SDS011;16639;51.488;0.152;2023-10-31T09:45:02;16.95;;;5.78;;
29730;SDS011;16639;51.488;0.152;2023-10-31T09:47:30;14.60;;;5.18;;
29730;SDS011;16639;51.488;0.152;2023-10-31T09:49:59;8.52;;;4.10;;
29730;SDS011;16639;51.488;0.152;2023-10-31T09:52:26;6.45;;;4.75;;
29730;SDS011;16639;51.488;0.152;2023-10-31T09:54:54;8.48;;;3.80;;
29730;SDS011;16639;51.488;0.152;2023-10-31T09:57:22;8.40;;;3.60;;
29730;SDS011;16639;51.488;0.152;2023-10-31T09:59:53;12.82;;;4.30;;
29730;SDS011;16639;51.488;0.152;2023-10-31T10:02:22;8.65;;;3.28;;
29730;SDS011;16639;51.488;0.152;2023-10-31T10:04:50;7.90;;;2.60;;
29730;SDS011;16639;51.488;0.152;2023-10-31T10:07:18;7.85;;;3.03;;
29730;SDS011;16639;51.488;0.152;2023-10-31T10:09:46;5.35;;;2.25;;
29730;SDS011;16639;51.488;0.152;2023-10-31T10:12:14;10.50;;;2.22;;
29730;SDS011;16639;51.488;0.152;2023-10-31T10:14:46;7.25;;;2.45;;
29730;SDS011;16639;51.488;0.152;2023-10-31T10:17:17;6.95;;;2.00;;
29730;SDS011;16639;51.488;0.152;2023-10-31T10:20:07;5.68;;;2.20;;
29730;SDS011;16639;51.488;0.152;2023-10-31T10:22:40;7.10;;;1.83;;
29730;SDS011;16639;51.488;0.152;2023-10-31T10:25:17;4.85;;;2.10;;
29730;SDS011;16639;51.488;0.152;2023-10-31T10:32:51;4.95;;;2.22;;
29730;SDS011;16639;51.488;0.152;2023-10-31T10:35:30;8.07;;;2.30;;
29730;SDS011;16639;51.488;0.152;2023-10-31T10:38:10;11.57;;;2.42;;
29730;SDS011;16639;51.488;0.152;2023-10-31T10:40:43;9.15;;;2.72;;
29730;SDS011;16639;51.488;0.152;2023-10-31T10:43:14;10.98;;;2.67;;
29730;SDS011;16639;51.488;0.152;2023-10-31T10:45:55;8.77;;;2.53;;
29730;SDS011;16639;51.488;0.152;2023-10-31T10:48:25;6.05;;;2.75;;
29730;SDS011;16639;51.488;0.152;2023-10-31T10:51:05;7.90;;;2.30;;
29730;SDS011;16639;51.488;0.152;2023-10-31T10:53:57;13.85;;;2.53;;
29730;SDS011;16639;51.488;0.152;2023-10-31T10:56:40;9.82;;;3.33;;
29730;SDS011;16639;51.488;0.152;2023-10-31T11:01:42;13.25;;;3.00;;
29730;SDS011;16639;51.488;0.152;2023-10-31T11:04:13;5.20;;;2.58;;
29730;SDS011;16639;51.488;0.152;2023-10-31T11:06:42;9.75;;;2.92;;
29730;SDS011;16639;51.488;0.152;2023-10-31T11:09:11;13.10;;;3.35;;
29730;SDS011;16639;51.488;0.152;2023-10-31T11:11:40;14.50;;;2.60;;
29730;SDS011;16639;51.488;0.152;2023-10-31T11:14:08;3.45;;;2.55;;
29730;SDS011;16639;51.488;0.152;2023-10-31T11:16:42;6.88;;;3.33;;
29730;SDS011;16639;51.488;0.152;2023-10-31T11:19:12;4.13;;;3.00;;
29730;SDS011;16639;51.488;0.152;2023-10-31T11:22:00;6.80;;;2.58;;
29730;SDS011;16639;51.488;0.152;2023-10-31T11:26:58;8.38;;;2.67;;
29730;SDS011;16639;51.488;0.152;2023-10-31T11:29:31;13.93;;;3.55;;
29730;SDS011;16639;51.488;0.152;2023-10-31T11:31:59;10.80;;;3.13;;
29730;SDS011;16639;51.488;0.152;2023-10-31T11:34:30;8.95;;;3.40;;
29730;SDS011;16639;51.488;0.152;2023-10-31T11:37:45;8.32;;;3.13;;
29730;SDS011;16639;51.488;0.152;2023-10-31T11:42:47;4.60;;;3.45;;
29730;SDS011;16639;51.488;0.152;2023-10-31T11:47:54;8.55;;;2.50;;
29730;SDS011;16639;51.488;0.152;2023-10-31T11:50:22;6.85;;;2.60;;
29730;SDS011;16639;51.488;0.152;2023-10-31T11:53:07;10.70;;;3.20;;
29730;SDS011;16639;51.488;0.152;2023-10-31T11:55:36;5.60;;;2.90;;
29730;SDS011;16639;51.488;0.152;2023-10-31T11:58:23;6.07;;;2.85;;
29730;SDS011;16639;51.488;0.152;2023-10-31T12:00:53;7.47;;;2.28;;
29730;SDS011;16639;51.488;0.152;2023-10-31T12:03:36;4.22;;;2.20;;
29730;SDS011;16639;51.488;0.152;2023-10-31T12:06:14;13.00;;;2.35;;
29730;SDS011;16639;51.488;0.152;2023-10-31T12:08:42;5.20;;;2.53;;
29730;SDS011;16639;51.488;0.152;2023-10-31T12:11:21;6.93;;;2.17;;
29730;SDS011;16639;51.488;0.152;2023-10-31T12:13:54;4.75;;;2.42;;
29730;SDS011;16639;51.488;0.152;2023-10-31T12:16:30;4.22;;;2.58;;
29730;SDS011;16639;51.488;0.152;2023-10-31T12:18:59;7.43;;;2.42;;
29730;SDS011;16639;51.488;0.152;2023-10-31T12:24:04;4.32;;;2.20;;
29730;SDS011;16639;51.488;0.152;2023-10-31T12:26:33;6.05;;;2.60;;
29730;SDS011;16639;51.488;0.152;2023-10-31T12:29:08;9.85;;;2.72;;
29730;SDS011;16639;51.488;0.152;2023-10-31T12:31:40;5.80;;;2.60;;
29730;SDS011;16639;51.488;0.152;2023-10-31T12:34:15;5.10;;;2.35;;
29730;SDS011;16639;51.488;0.152;2023-10-31T12:36:44;7.90;;;2.30;;
29730;SDS011;16639;51.488;0.152;2023-10-31T12:39:13;7.40;;;2.55;;
29730;SDS011;16639;51.488;0.152;2023-10-31T12:41:43;6.45;;;2.42;;
29730;SDS011;16639;51.488;0.152;2023-10-31T12:44:11;8.73;;;2.35;;
29730;SDS011;16639;51.488;0.152;2023-10-31T12:46:43;6.85;;;2.47;;
29730;SDS011;16639;51.488;0.152;2023-10-31T12:49:11;11.55;;;2.78;;
29730;SDS011;16639;51.488;0.152;2023-10-31T12:54:28;9.07;;;2.65;;
29730;SDS011;16639;51.488;0.152;2023-10-31T12:57:00;6.70;;;2.40;;
29730;SDS011;16639;51.488;0.152;2023-10-31T12:59:36;13.85;;;2.78;;
29730;SDS011;16639;51.488;0.152;2023-10-31T13:02:07;8.75;;;2.38;;
29730;SDS011;16639;51.488;0.152;2023-10-31T13:04:39;5.25;;;2.00;;
29730;SDS011;16639;51.488;0.152;2023-10-31T13:07:30;7.47;;;2.47;;
29730;SDS011;16639;51.488;0.152;2023-10-31T13:09:59;10.80;;;1.77;;
29730;SDS011;16639;51.488;0.152;2023-10-31T13:12:26;9.90;;;2.10;;
29730;SDS011;16639;51.488;0.152;2023-10-31T13:14:57;6.07;;;1.40;;
29730;SDS011;16639;51.488;0.152;2023-10-31T13:17:26;7.63;;;3.15;;
29730;SDS011;16639;51.488;0.152;2023-10-31T13:19:55;9.30;;;2.55;;
29730;SDS011;16639;51.488;0.152;2023-10-31T13:22:22;7.70;;;2.40;;
29730;SDS011;16639;51.488;0.152;2023-10-31T13:24:51;4.50;;;1.73;;
29730;SDS011;16639;51.488;0.152;2023-10-31T13:27:18;5.70;;;1.95;;
29730;SDS011;16639;51.488;0.152;2023-10-31T13:29:46;6.57;;;2.13;;
29730;SDS011;16639;51.488;0.152;2023-10-31T13:32:16;5.88;;;1.45;;
29730;SDS011;16639;51.488;0.152;2023-10-31T13:34:44;7.18;;;1.70;;
29730;SDS011;16639;51.488;0.152;2023-10-31T13:37:11;6.38;;;1.98;;
29730;SDS011;16639;51.488;0.152;2023-10-31T13:39:38;6.28;;;2.38;;
29730;SDS011;16639;51.488;0.152;2023-10-31T13:42:06;5.47;;;1.52;;
29730;SDS011;16639;51.488;0.152;2023-10-31T13:44:33;2.55;;;1.30;;
29730;SDS011;16639;51.488;0.152;2023-10-31T13:47:01;4.13;;;1.63;;
29730;SDS011;16639;51.488;0.152;2023-10-31T13:49:30;3.40;;;1.23;;
29730;SDS011;16639;51.488;0.152;2023-10-31T13:51:57;4.38;;;1.42;;
29730;SDS011;16639;51.488;0.152;2023-10-31T13:54:24;2.72;;;1.27;;
29730;SDS011;16639;51.488;0.152;2023-10-31T13:56:53;4.03;;;1.60;;
29730;SDS011;16639;51.488;0.152;2023-10-31T13:59:21;6.32;;;1.52;;
29730;SDS011;16639;51.488;0.152;2023-10-31T14:01:48;2.80;;;1.40;;
29730;SDS011;16639;51.488;0.152;2023-10-31T14:04:15;5.38;;;1.23;;
29730;SDS011;16639;51.488;0.152;2023-10-31T14:06:44;2.10;;;1.10;;
29730;SDS011;16639;51.488;0.152;2023-10-31T14:09:12;2.35;;;1.35;;
29730;SDS011;16639;51.488;0.152;2023-10-31T14:11:40;3.60;;;1.45;;
29730;SDS011;16639;51.488;0.152;2023-10-31T14:14:08;2.45;;;1.15;;
29730;SDS011;16639;51.488;0.152;2023-10-31T14:16:37;2.45;;;0.95;;
29730;SDS011;16639;51.488;0.152;2023-10-31T14:19:06;3.17;;;1.50;;
29730;SDS011;16639;51.488;0.152;2023-10-31T14:21:35;4.47;;;1.30;;
29730;SDS011;16639;51.488;0.152;2023-10-31T14:24:03;3.67;;;1.38;;
29730;SDS011;16639;51.488;0.152;2023-10-31T14:26:38;3.58;;;1.40;;
29730;SDS011;16639;51.488;0.152;2023-10-31T14:29:07;2.22;;;1.27;;
29730;SDS011;16639;51.488;0.152;2023-10-31T14:31:41;5.45;;;1.33;;
29730;SDS011;16639;51.488;0.152;2023-10-31T14:34:09;5.97;;;2.10;;
29730;SDS011;16639;51.488;0.152;2023-10-31T14:36:37;6.35;;;1.98;;
29730;SDS011;16639;51.488;0.152;2023-10-31T14:39:04;2.15;;;1.23;;
29730;SDS011;16639;51.488;0.152;2023-10-31T14:41:32;3.53;;;1.35;;
29730;SDS011;16639;51.488;0.152;2023-10-31T14:44:01;6.45;;;1.83;;
29730;SDS011;16639;51.488;0.152;2023-10-31T14:46:29;1.98;;;1.30;;
29730;SDS011;16639;51.488;0.152;2023-10-31T14:48:57;3.80;;;1.58;;
29730;SDS011;16639;51.488;0.152;2023-10-31T14:51:25;1.90;;;1.30;;
29730;SDS011;16639;51.488;0.152;2023-10-31T14:53:52;3.85;;;1.40;;
29730;SDS011;16639;51.488;0.152;2023-10-31T14:56:20;2.95;;;1.50;;
29730;SDS011;16639;51.488;0.152;2023-10-31T14:58:48;3.00;;;1.40;;
29730;SDS011;16639;51.488;0.152;2023-10-31T15:01:16;3.65;;;1.30;;
29730;SDS011;16639;51.488;0.152;2023-10-31T15:03:43;2.75;;;1.50;;
29730;SDS011;16639;51.488;0.152;2023-10-31T15:06:11;2.58;;;1.30;;
29730;SDS011;16639;51.488;0.152;2023-10-31T15:08:38;7.30;;;1.45;;
29730;SDS011;16639;51.488;0.152;2023-10-31T15:11:06;8.57;;;2.60;;
29730;SDS011;16639;51.488;0.152;2023-10-31T15:13:33;19.60;;;6.47;;
29730;SDS011;16639;51.488;0.152;2023-10-31T15:16:00;18.67;;;6.28;;
29730;SDS011;16639;51.488;0.152;2023-10-31T15:18:28;10.30;;;4.28;;